CHH909 ZJHK-ZHCC
Flight info
| Callsign | CHH909 |
|---|---|
| Flight time | 2h 29m |
| Altitude | 31100 |
| Route | AGTEL9XD AGTEL W71 LH R339 BHY W159 IVPUB W120 ENKUS R343 GOSMA W82 UPMAT W56 IGMIG IGM6U |
| Aircraft | A346/H-SDE2E3FGHIJ3J4J5M1RWXY/LB1D1 |
Departure
| Time | 2026-05-07 12:02 |
|---|---|
| Airport | Haikou Meilan International Airport (ZJHK) |
Arrival
| Time | 2026-05-07 14:31 |
|---|---|
| Airport | Zhengzhou Xinzheng International Airport (ZHCC) |
| Time | Latitude | Longitude | Altitude | Speed | Heading |
|---|---|---|---|---|---|
| 2026-05-07 11:21 | 19.95034 | 110.45728 | 58 ft | 0 kts | 0° |
| 2026-05-07 11:51 | 19.95027 | 110.45728 | 65 ft | 4 kts | 0° |
| 2026-05-07 11:51 | 19.95003 | 110.45729 | 56 ft | 4 kts | 353° |
| 2026-05-07 11:52 | 19.94977 | 110.45733 | 56 ft | 4 kts | 347° |
| 2026-05-07 11:52 | 19.94951 | 110.45741 | 56 ft | 4 kts | 343° |
| 2026-05-07 11:52 | 19.94931 | 110.45748 | 56 ft | 0 kts | 342° |
| 2026-05-07 11:56 | 19.94941 | 110.45744 | 60 ft | 3 kts | 342° |
| 2026-05-07 11:57 | 19.94960 | 110.45727 | 60 ft | 4 kts | 292° |
| 2026-05-07 11:57 | 19.94964 | 110.45683 | 59 ft | 8 kts | 272° |
| 2026-05-07 11:57 | 19.94979 | 110.45619 | 58 ft | 11 kts | 301° |
| 2026-05-07 11:57 | 19.95013 | 110.45576 | 60 ft | 5 kts | 312° |
| 2026-05-07 11:58 | 19.95044 | 110.45545 | 55 ft | 8 kts | 327° |
| 2026-05-07 11:58 | 19.95106 | 110.45533 | 60 ft | 11 kts | 359° |
| 2026-05-07 11:58 | 19.95185 | 110.45512 | 62 ft | 12 kts | 308° |
| 2026-05-07 11:58 | 19.95202 | 110.45412 | 63 ft | 15 kts | 271° |
| 2026-05-07 11:59 | 19.95203 | 110.45292 | 63 ft | 18 kts | 272° |
| 2026-05-07 11:59 | 19.95203 | 110.45153 | 61 ft | 20 kts | 270° |
| 2026-05-07 11:59 | 19.95202 | 110.45021 | 61 ft | 11 kts | 269° |
| 2026-05-07 11:59 | 19.95201 | 110.44931 | 60 ft | 13 kts | 269° |
| 2026-05-07 12:00 | 19.95203 | 110.44871 | 55 ft | 6 kts | 280° |
| 2026-05-07 12:00 | 19.95232 | 110.44832 | 53 ft | 9 kts | 330° |
| 2026-05-07 12:00 | 19.95305 | 110.44827 | 51 ft | 13 kts | 18° |
| 2026-05-07 12:00 | 19.95368 | 110.44898 | 51 ft | 15 kts | 79° |
| 2026-05-07 12:01 | 19.95371 | 110.44925 | 53 ft | 7 kts | 85° |
| 2026-05-07 12:01 | 19.95374 | 110.45213 | 61 ft | 75 kts | 90° |
| 2026-05-07 12:01 | 19.95376 | 110.45976 | 67 ft | 135 kts | 90° |
| 2026-05-07 12:01 | 19.95391 | 110.47123 | 158 ft | 175 kts | 89° |
| 2026-05-07 12:02 | 19.95511 | 110.48371 | 812 ft | 174 kts | 81° |
| 2026-05-07 12:02 | 19.95919 | 110.49561 | 1450 ft | 182 kts | 58° |
| 2026-05-07 12:02 | 19.96954 | 110.50318 | 1856 ft | 202 kts | 14° |
| 2026-05-07 12:02 | 19.98379 | 110.50158 | 2188 ft | 221 kts | 343° |
| 2026-05-07 12:03 | 19.99816 | 110.49542 | 2613 ft | 233 kts | 336° |
| 2026-05-07 12:03 | 20.01343 | 110.48790 | 2926 ft | 252 kts | 336° |
| 2026-05-07 12:03 | 20.02973 | 110.47999 | 3487 ft | 258 kts | 336° |
| 2026-05-07 12:03 | 20.04601 | 110.47225 | 4381 ft | 254 kts | 336° |
| 2026-05-07 12:04 | 20.06213 | 110.46473 | 5191 ft | 252 kts | 336° |
| 2026-05-07 12:04 | 20.07816 | 110.45736 | 5941 ft | 255 kts | 336° |
| 2026-05-07 12:04 | 20.09419 | 110.45006 | 6636 ft | 258 kts | 336° |
| 2026-05-07 12:04 | 20.11030 | 110.44276 | 7316 ft | 260 kts | 336° |
| 2026-05-07 12:05 | 20.12700 | 110.43520 | 8036 ft | 263 kts | 336° |
| 2026-05-07 12:05 | 20.14394 | 110.42756 | 8807 ft | 265 kts | 336° |
| 2026-05-07 12:05 | 20.16107 | 110.41982 | 9627 ft | 267 kts | 336° |
| 2026-05-07 12:05 | 20.17820 | 110.41207 | 10339 ft | 269 kts | 335° |
| 2026-05-07 12:06 | 20.19550 | 110.40423 | 11013 ft | 272 kts | 335° |
| 2026-05-07 12:06 | 20.21283 | 110.39635 | 11686 ft | 275 kts | 335° |
| 2026-05-07 12:06 | 20.23050 | 110.38834 | 12353 ft | 278 kts | 335° |
| 2026-05-07 12:06 | 20.24834 | 110.38037 | 13042 ft | 281 kts | 336° |
| 2026-05-07 12:07 | 20.26682 | 110.37333 | 13660 ft | 288 kts | 340° |
| 2026-05-07 12:07 | 20.28634 | 110.36655 | 13977 ft | 304 kts | 340° |
| 2026-05-07 12:07 | 20.30507 | 110.36014 | 14253 ft | 318 kts | 340° |
| 2026-05-07 12:07 | 20.32454 | 110.35349 | 14526 ft | 332 kts | 340° |
| 2026-05-07 12:08 | 20.34660 | 110.34594 | 14800 ft | 347 kts | 340° |
| 2026-05-07 12:08 | 20.37007 | 110.33790 | 15068 ft | 363 kts | 340° |
| 2026-05-07 12:08 | 20.39458 | 110.32949 | 15327 ft | 378 kts | 340° |
| 2026-05-07 12:08 | 20.41999 | 110.32076 | 15575 ft | 393 kts | 340° |
| 2026-05-07 12:09 | 20.44621 | 110.31174 | 15838 ft | 406 kts | 340° |
| 2026-05-07 12:09 | 20.47321 | 110.30293 | 16281 ft | 413 kts | 344° |
| 2026-05-07 12:09 | 20.50135 | 110.29723 | 16877 ft | 417 kts | 351° |
| 2026-05-07 12:09 | 20.53041 | 110.29532 | 17476 ft | 421 kts | 358° |
| 2026-05-07 12:10 | 20.55977 | 110.29655 | 18030 ft | 425 kts | 1° |
| 2026-05-07 12:10 | 20.58947 | 110.29857 | 18512 ft | 429 kts | 1° |
| 2026-05-07 12:10 | 20.61938 | 110.30072 | 19000 ft | 432 kts | 1° |
| 2026-05-07 12:10 | 20.64957 | 110.30286 | 19425 ft | 434 kts | 1° |
| 2026-05-07 12:11 | 20.67979 | 110.30493 | 19793 ft | 437 kts | 1° |
| 2026-05-07 12:11 | 20.71003 | 110.30697 | 20310 ft | 439 kts | 1° |
| 2026-05-07 12:11 | 20.74037 | 110.30898 | 20820 ft | 440 kts | 1° |
| 2026-05-07 12:11 | 20.77108 | 110.31101 | 21300 ft | 443 kts | 1° |
| 2026-05-07 12:12 | 20.80182 | 110.31303 | 21769 ft | 445 kts | 1° |
| 2026-05-07 12:12 | 20.83290 | 110.31507 | 22219 ft | 448 kts | 1° |
| 2026-05-07 12:12 | 20.86374 | 110.31710 | 22697 ft | 451 kts | 1° |
| 2026-05-07 12:12 | 20.88697 | 110.31862 | 23024 ft | 452 kts | 2° |
| 2026-05-07 12:13 | 20.91856 | 110.32070 | 23462 ft | 455 kts | 2° |
| 2026-05-07 12:13 | 20.95026 | 110.32279 | 23828 ft | 458 kts | 2° |
| 2026-05-07 12:13 | 20.98226 | 110.32490 | 24187 ft | 460 kts | 2° |
| 2026-05-07 12:13 | 21.01407 | 110.32686 | 24543 ft | 463 kts | 1° |
| 2026-05-07 12:14 | 21.04624 | 110.32859 | 24904 ft | 465 kts | 1° |
| 2026-05-07 12:14 | 21.07864 | 110.32881 | 25226 ft | 467 kts | 352° |
| 2026-05-07 12:14 | 21.11006 | 110.32054 | 25546 ft | 466 kts | 336° |
| 2026-05-07 12:14 | 21.13823 | 110.30351 | 25927 ft | 465 kts | 322° |
| 2026-05-07 12:15 | 21.16116 | 110.27924 | 26262 ft | 465 kts | 307° |
| 2026-05-07 12:15 | 21.17806 | 110.24964 | 26613 ft | 467 kts | 298° |
| 2026-05-07 12:15 | 21.19338 | 110.21895 | 26978 ft | 469 kts | 297° |
| 2026-05-07 12:15 | 21.20877 | 110.18787 | 27299 ft | 472 kts | 297° |
| 2026-05-07 12:16 | 21.22434 | 110.15654 | 27641 ft | 475 kts | 297° |
| 2026-05-07 12:16 | 21.23996 | 110.12522 | 27982 ft | 477 kts | 298° |
| 2026-05-07 12:16 | 21.25572 | 110.09372 | 28338 ft | 479 kts | 298° |
| 2026-05-07 12:16 | 21.27151 | 110.06224 | 28784 ft | 478 kts | 298° |
| 2026-05-07 12:17 | 21.28723 | 110.03091 | 29321 ft | 476 kts | 298° |
| 2026-05-07 12:17 | 21.30287 | 109.99975 | 29846 ft | 474 kts | 297° |
| 2026-05-07 12:17 | 21.31831 | 109.96899 | 30263 ft | 474 kts | 297° |
| 2026-05-07 12:17 | 21.33393 | 109.93783 | 30638 ft | 473 kts | 297° |
| 2026-05-07 12:18 | 21.34959 | 109.90657 | 30977 ft | 474 kts | 297° |
| 2026-05-07 12:18 | 21.36523 | 109.87535 | 31305 ft | 475 kts | 297° |
| 2026-05-07 12:18 | 21.38088 | 109.84410 | 31645 ft | 476 kts | 297° |
| 2026-05-07 12:18 | 21.39657 | 109.81275 | 31952 ft | 477 kts | 298° |
| 2026-05-07 12:19 | 21.41229 | 109.78133 | 31978 ft | 477 kts | 297° |
| 2026-05-07 12:19 | 21.44291 | 109.72010 | 31989 ft | 477 kts | 297° |
| 2026-05-07 12:20 | 21.47421 | 109.65739 | 31989 ft | 477 kts | 297° |
| 2026-05-07 12:20 | 21.50550 | 109.59464 | 31990 ft | 477 kts | 297° |
| 2026-05-07 12:21 | 21.53726 | 109.53206 | 31974 ft | 477 kts | 301° |
| 2026-05-07 12:21 | 21.58015 | 109.47778 | 31983 ft | 480 kts | 317° |
| 2026-05-07 12:22 | 21.63605 | 109.43812 | 31989 ft | 484 kts | 333° |
| 2026-05-07 12:22 | 21.70019 | 109.41673 | 31984 ft | 489 kts | 348° |
| 2026-05-07 12:23 | 21.76778 | 109.40754 | 31993 ft | 490 kts | 351° |
| 2026-05-07 12:23 | 21.83547 | 109.39919 | 31988 ft | 489 kts | 351° |
| 2026-05-07 12:24 | 21.90308 | 109.39063 | 31982 ft | 489 kts | 351° |
| 2026-05-07 12:24 | 21.97067 | 109.38192 | 31987 ft | 489 kts | 351° |
| 2026-05-07 12:25 | 22.03814 | 109.37318 | 31983 ft | 489 kts | 351° |
| 2026-05-07 12:25 | 22.10567 | 109.36443 | 31986 ft | 489 kts | 351° |
| 2026-05-07 12:26 | 22.17370 | 109.35560 | 31994 ft | 488 kts | 351° |
| 2026-05-07 12:26 | 22.23943 | 109.35001 | 31996 ft | 490 kts | 356° |
| 2026-05-07 12:27 | 22.30779 | 109.35134 | 31997 ft | 492 kts | 2° |
| 2026-05-07 12:27 | 22.37567 | 109.36012 | 31992 ft | 494 kts | 7° |
| 2026-05-07 12:28 | 22.44361 | 109.37336 | 31992 ft | 494 kts | 8° |
| 2026-05-07 12:28 | 22.51085 | 109.38676 | 31992 ft | 494 kts | 8° |
| 2026-05-07 12:29 | 22.57847 | 109.40016 | 32000 ft | 494 kts | 8° |
| 2026-05-07 12:29 | 22.64614 | 109.41348 | 31787 ft | 494 kts | 8° |
| 2026-05-07 12:29 | 22.67995 | 109.42013 | 31544 ft | 494 kts | 8° |
| 2026-05-07 12:30 | 22.71381 | 109.42680 | 31319 ft | 494 kts | 8° |
| 2026-05-07 12:30 | 22.74740 | 109.43344 | 31096 ft | 495 kts | 8° |
| 2026-05-07 12:30 | 22.78154 | 109.44020 | 31006 ft | 494 kts | 8° |
| 2026-05-07 12:31 | 22.84926 | 109.45362 | 31003 ft | 495 kts | 7° |
| 2026-05-07 12:31 | 22.91688 | 109.46705 | 30998 ft | 494 kts | 7° |
| 2026-05-07 12:32 | 22.98438 | 109.48041 | 30999 ft | 494 kts | 7° |
| 2026-05-07 12:32 | 23.05133 | 109.49368 | 30998 ft | 494 kts | 7° |
| 2026-05-07 12:33 | 23.15244 | 109.51377 | 30999 ft | 494 kts | 7° |
| 2026-05-07 12:33 | 23.22013 | 109.52725 | 30995 ft | 495 kts | 7° |
| 2026-05-07 12:34 | 23.28804 | 109.54075 | 31000 ft | 496 kts | 7° |
| 2026-05-07 12:34 | 23.35519 | 109.55412 | 31001 ft | 496 kts | 7° |
| 2026-05-07 12:35 | 23.42304 | 109.56764 | 30999 ft | 496 kts | 7° |
| 2026-05-07 12:35 | 23.49035 | 109.58113 | 31001 ft | 495 kts | 6° |
| 2026-05-07 12:36 | 23.55808 | 109.59462 | 30999 ft | 495 kts | 6° |
| 2026-05-07 12:36 | 23.62582 | 109.60814 | 30999 ft | 495 kts | 6° |
| 2026-05-07 12:37 | 23.69344 | 109.62169 | 30995 ft | 495 kts | 6° |
| 2026-05-07 12:37 | 23.76121 | 109.63531 | 31001 ft | 495 kts | 6° |
| 2026-05-07 12:38 | 23.82913 | 109.64894 | 30996 ft | 495 kts | 6° |
| 2026-05-07 12:38 | 23.89698 | 109.66255 | 30996 ft | 495 kts | 6° |
| 2026-05-07 12:39 | 23.96467 | 109.67615 | 31007 ft | 495 kts | 6° |
| 2026-05-07 12:39 | 24.03244 | 109.68978 | 31005 ft | 495 kts | 6° |
| 2026-05-07 12:40 | 24.10038 | 109.70346 | 31004 ft | 495 kts | 6° |
| 2026-05-07 12:40 | 24.16819 | 109.71714 | 31003 ft | 495 kts | 6° |
| 2026-05-07 12:41 | 24.23555 | 109.73073 | 31003 ft | 495 kts | 6° |
| 2026-05-07 12:41 | 24.30336 | 109.74442 | 31007 ft | 495 kts | 6° |
| 2026-05-07 12:42 | 24.37082 | 109.75810 | 31010 ft | 494 kts | 6° |
| 2026-05-07 12:42 | 24.43817 | 109.77171 | 31005 ft | 494 kts | 6° |
| 2026-05-07 12:43 | 24.50595 | 109.78543 | 31009 ft | 494 kts | 6° |
| 2026-05-07 12:43 | 24.57300 | 109.79903 | 31018 ft | 494 kts | 6° |
| 2026-05-07 12:44 | 24.63985 | 109.81689 | 31027 ft | 499 kts | 13° |
| 2026-05-07 12:44 | 24.70452 | 109.84555 | 31027 ft | 505 kts | 21° |
| 2026-05-07 12:45 | 24.76553 | 109.88486 | 31026 ft | 510 kts | 29° |
| 2026-05-07 12:45 | 24.82431 | 109.92855 | 31030 ft | 510 kts | 30° |
| 2026-05-07 12:46 | 24.88274 | 109.97228 | 31049 ft | 510 kts | 30° |
| 2026-05-07 12:46 | 24.94145 | 110.01603 | 31048 ft | 511 kts | 29° |
| 2026-05-07 12:47 | 25.00032 | 110.05981 | 31054 ft | 511 kts | 30° |
| 2026-05-07 12:47 | 25.05907 | 110.10357 | 31053 ft | 511 kts | 29° |
| 2026-05-07 12:48 | 25.11797 | 110.14746 | 31056 ft | 511 kts | 30° |
| 2026-05-07 12:48 | 25.17685 | 110.19139 | 31060 ft | 512 kts | 30° |
| 2026-05-07 12:49 | 25.23565 | 110.23525 | 31058 ft | 513 kts | 30° |
| 2026-05-07 12:49 | 25.29475 | 110.27913 | 31053 ft | 513 kts | 30° |
| 2026-05-07 12:50 | 25.34381 | 110.31557 | 31063 ft | 512 kts | 30° |
| 2026-05-07 12:50 | 25.41275 | 110.36688 | 31081 ft | 513 kts | 30° |
| 2026-05-07 12:51 | 25.47166 | 110.41050 | 31072 ft | 513 kts | 29° |
| 2026-05-07 12:51 | 25.53089 | 110.45402 | 31088 ft | 513 kts | 29° |
| 2026-05-07 12:52 | 25.58073 | 110.49039 | 31091 ft | 513 kts | 28° |
| 2026-05-07 12:52 | 25.64102 | 110.53205 | 31103 ft | 512 kts | 27° |
| 2026-05-07 12:53 | 25.70170 | 110.57377 | 31109 ft | 514 kts | 27° |
| 2026-05-07 12:53 | 25.76224 | 110.61572 | 31120 ft | 514 kts | 27° |
| 2026-05-07 12:54 | 25.82344 | 110.65718 | 31119 ft | 513 kts | 27° |
| 2026-05-07 12:54 | 25.88410 | 110.69809 | 31129 ft | 514 kts | 27° |
| 2026-05-07 12:55 | 25.94520 | 110.73944 | 31157 ft | 514 kts | 27° |
| 2026-05-07 12:55 | 26.00593 | 110.78062 | 31134 ft | 513 kts | 27° |
| 2026-05-07 12:56 | 26.06686 | 110.82200 | 31148 ft | 515 kts | 27° |
| 2026-05-07 12:56 | 26.12774 | 110.86326 | 31150 ft | 515 kts | 27° |
| 2026-05-07 12:57 | 26.18906 | 110.90482 | 31154 ft | 515 kts | 27° |
| 2026-05-07 12:57 | 26.25015 | 110.94631 | 31163 ft | 515 kts | 27° |
| 2026-05-07 12:58 | 26.31126 | 110.98779 | 31150 ft | 515 kts | 27° |
| 2026-05-07 12:58 | 26.37212 | 111.02919 | 31150 ft | 516 kts | 27° |
| 2026-05-07 12:59 | 26.43306 | 111.07070 | 31152 ft | 516 kts | 27° |
| 2026-05-07 12:59 | 26.49416 | 111.11239 | 31165 ft | 515 kts | 27° |
| 2026-05-07 13:00 | 26.55544 | 111.15424 | 31153 ft | 517 kts | 27° |
| 2026-05-07 13:00 | 26.61637 | 111.19680 | 31151 ft | 517 kts | 28° |
| 2026-05-07 13:01 | 26.67645 | 111.24110 | 31153 ft | 517 kts | 29° |
| 2026-05-07 13:01 | 26.73650 | 111.28544 | 31142 ft | 518 kts | 28° |
| 2026-05-07 13:02 | 26.79648 | 111.32950 | 31150 ft | 517 kts | 28° |
| 2026-05-07 13:02 | 26.85646 | 111.37351 | 31145 ft | 517 kts | 28° |
| 2026-05-07 13:03 | 26.91620 | 111.41718 | 31141 ft | 516 kts | 27° |
| 2026-05-07 13:03 | 26.97808 | 111.45853 | 31158 ft | 515 kts | 26° |
| 2026-05-07 13:04 | 27.03938 | 111.49866 | 31149 ft | 515 kts | 25° |
| 2026-05-07 13:04 | 27.10114 | 111.53921 | 31143 ft | 515 kts | 26° |
| 2026-05-07 13:05 | 27.16296 | 111.57997 | 31140 ft | 515 kts | 26° |
| 2026-05-07 13:05 | 27.22425 | 111.62155 | 31162 ft | 516 kts | 27° |
| 2026-05-07 13:06 | 27.28525 | 111.66399 | 31157 ft | 517 kts | 27° |
| 2026-05-07 13:06 | 27.34634 | 111.70635 | 31153 ft | 516 kts | 26° |
| 2026-05-07 13:07 | 27.40748 | 111.74868 | 31158 ft | 517 kts | 26° |
| 2026-05-07 13:07 | 27.46865 | 111.79104 | 31161 ft | 517 kts | 27° |
| 2026-05-07 13:08 | 27.52990 | 111.83362 | 31152 ft | 518 kts | 26° |
| 2026-05-07 13:08 | 27.59133 | 111.87635 | 31155 ft | 519 kts | 26° |
| 2026-05-07 13:09 | 27.65240 | 111.91887 | 31160 ft | 519 kts | 26° |
| 2026-05-07 13:09 | 27.71332 | 111.96131 | 31156 ft | 519 kts | 26° |
| 2026-05-07 13:10 | 27.77486 | 112.00430 | 31170 ft | 520 kts | 26° |
| 2026-05-07 13:10 | 27.83641 | 112.04728 | 31165 ft | 520 kts | 26° |
| 2026-05-07 13:11 | 27.89797 | 112.09028 | 31157 ft | 520 kts | 26° |
| 2026-05-07 13:11 | 27.95918 | 112.13312 | 31157 ft | 520 kts | 26° |
| 2026-05-07 13:12 | 28.02153 | 112.17626 | 31171 ft | 522 kts | 26° |
| 2026-05-07 13:12 | 28.08228 | 112.21970 | 31164 ft | 525 kts | 29° |
| 2026-05-07 13:13 | 28.14182 | 112.26766 | 31164 ft | 526 kts | 31° |
| 2026-05-07 13:13 | 28.20131 | 112.31593 | 31170 ft | 525 kts | 30° |
| 2026-05-07 13:14 | 28.26081 | 112.36313 | 31165 ft | 526 kts | 30° |
| 2026-05-07 13:14 | 28.32065 | 112.41054 | 31171 ft | 526 kts | 30° |
| 2026-05-07 13:15 | 28.38054 | 112.45813 | 31161 ft | 526 kts | 30° |
| 2026-05-07 13:15 | 28.44051 | 112.50585 | 31157 ft | 527 kts | 30° |
| 2026-05-07 13:16 | 28.50067 | 112.55384 | 31163 ft | 528 kts | 30° |
| 2026-05-07 13:16 | 28.56087 | 112.60193 | 31159 ft | 528 kts | 30° |
| 2026-05-07 13:17 | 28.62095 | 112.64999 | 31168 ft | 528 kts | 30° |
| 2026-05-07 13:17 | 28.68100 | 112.69809 | 31166 ft | 528 kts | 30° |
| 2026-05-07 13:18 | 28.74131 | 112.74646 | 31163 ft | 530 kts | 30° |
| 2026-05-07 13:18 | 28.80150 | 112.79479 | 31152 ft | 530 kts | 30° |
| 2026-05-07 13:19 | 28.86118 | 112.84279 | 31163 ft | 530 kts | 30° |
| 2026-05-07 13:19 | 28.91715 | 112.88789 | 31157 ft | 530 kts | 30° |
| 2026-05-07 13:20 | 28.97729 | 112.93642 | 31170 ft | 531 kts | 30° |
| 2026-05-07 13:20 | 29.03754 | 112.98508 | 31159 ft | 531 kts | 30° |
| 2026-05-07 13:21 | 29.09720 | 113.03334 | 31157 ft | 531 kts | 30° |
| 2026-05-07 13:21 | 29.15724 | 113.08197 | 31159 ft | 531 kts | 30° |
| 2026-05-07 13:22 | 29.21714 | 113.13053 | 31158 ft | 532 kts | 31° |
| 2026-05-07 13:22 | 29.27706 | 113.17920 | 31161 ft | 532 kts | 31° |
| 2026-05-07 13:23 | 29.33728 | 113.22757 | 31162 ft | 530 kts | 28° |
| 2026-05-07 13:23 | 29.40076 | 113.27027 | 31189 ft | 526 kts | 22° |
| 2026-05-07 13:24 | 29.46392 | 113.30789 | 31169 ft | 526 kts | 22° |
| 2026-05-07 13:24 | 29.52846 | 113.34604 | 31176 ft | 526 kts | 22° |
| 2026-05-07 13:25 | 29.59353 | 113.38478 | 31172 ft | 527 kts | 22° |
| 2026-05-07 13:25 | 29.65852 | 113.42364 | 31191 ft | 527 kts | 22° |
| 2026-05-07 13:26 | 29.72359 | 113.46260 | 31177 ft | 527 kts | 22° |
| 2026-05-07 13:26 | 29.78880 | 113.50172 | 31173 ft | 527 kts | 22° |
| 2026-05-07 13:27 | 29.85385 | 113.54080 | 31173 ft | 527 kts | 22° |
| 2026-05-07 13:27 | 29.91822 | 113.57955 | 31188 ft | 527 kts | 22° |
| 2026-05-07 13:28 | 29.98424 | 113.61563 | 31184 ft | 523 kts | 18° |
| 2026-05-07 13:28 | 30.05077 | 113.64873 | 31176 ft | 523 kts | 17° |
| 2026-05-07 13:29 | 30.11763 | 113.68187 | 31201 ft | 523 kts | 17° |
| 2026-05-07 13:29 | 30.18447 | 113.71520 | 31184 ft | 523 kts | 17° |
| 2026-05-07 13:30 | 30.24812 | 113.74701 | 31182 ft | 523 kts | 17° |
| 2026-05-07 13:30 | 30.31284 | 113.77942 | 31181 ft | 524 kts | 17° |
| 2026-05-07 13:31 | 30.37971 | 113.81299 | 31201 ft | 523 kts | 17° |
| 2026-05-07 13:31 | 30.44652 | 113.84657 | 31189 ft | 523 kts | 17° |
| 2026-05-07 13:32 | 30.51348 | 113.88023 | 31185 ft | 523 kts | 17° |
| 2026-05-07 13:32 | 30.58024 | 113.91384 | 31189 ft | 523 kts | 17° |
| 2026-05-07 13:33 | 30.64721 | 113.94760 | 31197 ft | 521 kts | 17° |
| 2026-05-07 13:33 | 30.71393 | 113.98080 | 31194 ft | 523 kts | 18° |
| 2026-05-07 13:34 | 30.80978 | 114.03389 | 31183 ft | 523 kts | 19° |
| 2026-05-07 13:35 | 30.87317 | 114.06822 | 31199 ft | 522 kts | 18° |
| 2026-05-07 13:35 | 30.93894 | 114.10375 | 31202 ft | 522 kts | 18° |
| 2026-05-07 13:36 | 31.00436 | 114.13917 | 31190 ft | 523 kts | 18° |
| 2026-05-07 13:36 | 31.07037 | 114.17507 | 31214 ft | 523 kts | 18° |
| 2026-05-07 13:37 | 31.13624 | 114.21093 | 31207 ft | 523 kts | 18° |
| 2026-05-07 13:37 | 31.19148 | 114.24098 | 31197 ft | 523 kts | 18° |
| 2026-05-07 13:38 | 31.25745 | 114.27694 | 31202 ft | 523 kts | 18° |
| 2026-05-07 13:38 | 31.32426 | 114.30917 | 31215 ft | 514 kts | 11° |
| 2026-05-07 13:39 | 31.39287 | 114.32875 | 31204 ft | 503 kts | 1° |
| 2026-05-07 13:39 | 31.46160 | 114.33570 | 31204 ft | 494 kts | 354° |
| 2026-05-07 13:40 | 31.53033 | 114.33734 | 31205 ft | 494 kts | 353° |
| 2026-05-07 13:40 | 31.59757 | 114.33890 | 31215 ft | 495 kts | 353° |
| 2026-05-07 13:41 | 31.66543 | 114.34078 | 31214 ft | 495 kts | 353° |
| 2026-05-07 13:41 | 31.73336 | 114.34278 | 31221 ft | 495 kts | 353° |
| 2026-05-07 13:42 | 31.80218 | 114.34488 | 31238 ft | 494 kts | 354° |
| 2026-05-07 13:42 | 31.87195 | 114.34702 | 31222 ft | 493 kts | 354° |
| 2026-05-07 13:43 | 31.93913 | 114.34908 | 31227 ft | 493 kts | 354° |
| 2026-05-07 13:43 | 32.00762 | 114.35115 | 31229 ft | 493 kts | 354° |
| 2026-05-07 13:44 | 32.07576 | 114.35319 | 31112 ft | 486 kts | 354° |
| 2026-05-07 13:44 | 32.10938 | 114.35423 | 30446 ft | 485 kts | 354° |
| 2026-05-07 13:44 | 32.14324 | 114.35522 | 29983 ft | 490 kts | 354° |
| 2026-05-07 13:44 | 32.17751 | 114.35621 | 29722 ft | 495 kts | 354° |
| 2026-05-07 13:45 | 32.21183 | 114.35726 | 29375 ft | 492 kts | 354° |
| 2026-05-07 13:45 | 32.24575 | 114.35837 | 28953 ft | 489 kts | 355° |
| 2026-05-07 13:45 | 32.27993 | 114.36066 | 28734 ft | 493 kts | 357° |
| 2026-05-07 13:45 | 32.31403 | 114.36363 | 28481 ft | 489 kts | 358° |
| 2026-05-07 13:46 | 32.34766 | 114.36678 | 28223 ft | 487 kts | 358° |
| 2026-05-07 13:46 | 32.38141 | 114.36996 | 27966 ft | 485 kts | 358° |
| 2026-05-07 13:46 | 32.41497 | 114.37310 | 27716 ft | 483 kts | 358° |
| 2026-05-07 13:46 | 32.44862 | 114.37621 | 27461 ft | 482 kts | 358° |
| 2026-05-07 13:47 | 32.48196 | 114.37927 | 27220 ft | 480 kts | 358° |
| 2026-05-07 13:47 | 32.51525 | 114.38231 | 26974 ft | 479 kts | 358° |
| 2026-05-07 13:47 | 32.54825 | 114.38535 | 26756 ft | 476 kts | 357° |
| 2026-05-07 13:47 | 32.58121 | 114.38836 | 26508 ft | 474 kts | 357° |
| 2026-05-07 13:48 | 32.61412 | 114.39136 | 26267 ft | 472 kts | 357° |
| 2026-05-07 13:48 | 32.64679 | 114.39434 | 26032 ft | 471 kts | 357° |
| 2026-05-07 13:48 | 32.67943 | 114.39736 | 25799 ft | 470 kts | 358° |
| 2026-05-07 13:48 | 32.71207 | 114.40041 | 25561 ft | 469 kts | 358° |
| 2026-05-07 13:49 | 32.74430 | 114.40342 | 25337 ft | 467 kts | 358° |
| 2026-05-07 13:49 | 32.77609 | 114.40640 | 25128 ft | 466 kts | 358° |
| 2026-05-07 13:49 | 32.80873 | 114.40946 | 24893 ft | 465 kts | 358° |
| 2026-05-07 13:49 | 32.84110 | 114.41247 | 24762 ft | 464 kts | 358° |
| 2026-05-07 13:50 | 32.87325 | 114.41546 | 24766 ft | 465 kts | 358° |
| 2026-05-07 13:50 | 32.90400 | 114.41833 | 24763 ft | 465 kts | 358° |
| 2026-05-07 13:50 | 32.93659 | 114.42137 | 24760 ft | 465 kts | 358° |
| 2026-05-07 13:50 | 32.96837 | 114.42434 | 24759 ft | 465 kts | 358° |
| 2026-05-07 13:51 | 32.99985 | 114.42728 | 24766 ft | 465 kts | 358° |
| 2026-05-07 13:51 | 33.02826 | 114.42994 | 24783 ft | 465 kts | 358° |
| 2026-05-07 13:51 | 33.06075 | 114.43298 | 24772 ft | 465 kts | 358° |
| 2026-05-07 13:51 | 33.09234 | 114.43596 | 24650 ft | 458 kts | 358° |
| 2026-05-07 13:52 | 33.12400 | 114.43894 | 24095 ft | 455 kts | 358° |
| 2026-05-07 13:52 | 33.15578 | 114.44188 | 23379 ft | 456 kts | 358° |
| 2026-05-07 13:52 | 33.18721 | 114.44478 | 22775 ft | 452 kts | 358° |
| 2026-05-07 13:52 | 33.21810 | 114.44763 | 22261 ft | 445 kts | 358° |
| 2026-05-07 13:53 | 33.24822 | 114.44494 | 21660 ft | 428 kts | 341° |
| 2026-05-07 13:53 | 33.27479 | 114.43098 | 21196 ft | 412 kts | 323° |
| 2026-05-07 13:53 | 33.29588 | 114.40895 | 20704 ft | 400 kts | 308° |
| 2026-05-07 13:53 | 33.31051 | 114.38096 | 20096 ft | 396 kts | 294° |
| 2026-05-07 13:54 | 33.32018 | 114.35065 | 19522 ft | 394 kts | 291° |
| 2026-05-07 13:54 | 33.32979 | 114.31926 | 18864 ft | 395 kts | 291° |
| 2026-05-07 13:54 | 33.33929 | 114.28843 | 18207 ft | 395 kts | 292° |
| 2026-05-07 13:54 | 33.34889 | 114.25768 | 17561 ft | 393 kts | 292° |
| 2026-05-07 13:55 | 33.36130 | 114.22886 | 16911 ft | 389 kts | 307° |
| 2026-05-07 13:55 | 33.38042 | 114.20633 | 16355 ft | 385 kts | 324° |
| 2026-05-07 13:55 | 33.40413 | 114.19174 | 15819 ft | 383 kts | 340° |
| 2026-05-07 13:55 | 33.42974 | 114.18333 | 15306 ft | 380 kts | 344° |
| 2026-05-07 13:56 | 33.45495 | 114.17566 | 14756 ft | 377 kts | 344° |
| 2026-05-07 13:56 | 33.48036 | 114.16793 | 14233 ft | 375 kts | 344° |
| 2026-05-07 13:56 | 33.50563 | 114.16018 | 13671 ft | 373 kts | 344° |
| 2026-05-07 13:56 | 33.53068 | 114.15242 | 13138 ft | 369 kts | 344° |
| 2026-05-07 13:57 | 33.55535 | 114.14475 | 12649 ft | 364 kts | 345° |
| 2026-05-07 13:57 | 33.57964 | 114.13718 | 12147 ft | 359 kts | 345° |
| 2026-05-07 13:57 | 33.60372 | 114.12968 | 11641 ft | 355 kts | 345° |
| 2026-05-07 13:57 | 33.62748 | 114.12227 | 11184 ft | 349 kts | 345° |
| 2026-05-07 13:58 | 33.65081 | 114.11498 | 10721 ft | 345 kts | 346° |
| 2026-05-07 13:58 | 33.67373 | 114.10782 | 10270 ft | 336 kts | 346° |
| 2026-05-07 13:58 | 33.69605 | 114.10084 | 9642 ft | 319 kts | 346° |
| 2026-05-07 13:58 | 33.71652 | 114.09445 | 9155 ft | 302 kts | 346° |
| 2026-05-07 13:59 | 33.73629 | 114.08828 | 8748 ft | 284 kts | 346° |
| 2026-05-07 13:59 | 33.75483 | 114.08247 | 8412 ft | 268 kts | 346° |
| 2026-05-07 13:59 | 33.77174 | 114.07717 | 8085 ft | 254 kts | 346° |
| 2026-05-07 13:59 | 33.78772 | 114.07216 | 7537 ft | 251 kts | 346° |
| 2026-05-07 14:00 | 33.80516 | 114.06671 | 6882 ft | 252 kts | 346° |
| 2026-05-07 14:00 | 33.82199 | 114.06148 | 6385 ft | 253 kts | 345° |
| 2026-05-07 14:00 | 33.83910 | 114.05610 | 6003 ft | 254 kts | 345° |
| 2026-05-07 14:00 | 33.85625 | 114.05069 | 5610 ft | 256 kts | 345° |
| 2026-05-07 14:01 | 33.87322 | 114.04535 | 5264 ft | 256 kts | 346° |
| 2026-05-07 14:01 | 33.89043 | 114.03995 | 4993 ft | 254 kts | 346° |
| 2026-05-07 14:01 | 33.90760 | 114.03458 | 4975 ft | 257 kts | 346° |
| 2026-05-07 14:01 | 33.92493 | 114.02917 | 4973 ft | 257 kts | 346° |
| 2026-05-07 14:02 | 33.94228 | 114.02375 | 4972 ft | 258 kts | 346° |
| 2026-05-07 14:02 | 33.95969 | 114.01830 | 4970 ft | 258 kts | 346° |
| 2026-05-07 14:02 | 33.97706 | 114.01285 | 4972 ft | 257 kts | 346° |
| 2026-05-07 14:02 | 33.99436 | 114.00742 | 4969 ft | 258 kts | 346° |
| 2026-05-07 14:03 | 34.01168 | 114.00199 | 4972 ft | 258 kts | 346° |
| 2026-05-07 14:03 | 34.02786 | 113.99691 | 4968 ft | 258 kts | 346° |
| 2026-05-07 14:03 | 34.04448 | 113.99169 | 4969 ft | 257 kts | 346° |
| 2026-05-07 14:03 | 34.06157 | 113.98632 | 4966 ft | 257 kts | 346° |
| 2026-05-07 14:04 | 34.07889 | 113.98088 | 4968 ft | 257 kts | 346° |
| 2026-05-07 14:04 | 34.09612 | 113.97489 | 4966 ft | 257 kts | 340° |
| 2026-05-07 14:04 | 34.11232 | 113.96571 | 4970 ft | 258 kts | 330° |
| 2026-05-07 14:04 | 34.12698 | 113.95317 | 4969 ft | 259 kts | 321° |
| 2026-05-07 14:05 | 34.13963 | 113.93763 | 4970 ft | 260 kts | 311° |
| 2026-05-07 14:05 | 34.14985 | 113.91950 | 4974 ft | 262 kts | 301° |
| 2026-05-07 14:05 | 34.15777 | 113.89911 | 4974 ft | 263 kts | 295° |
| 2026-05-07 14:05 | 34.16473 | 113.87867 | 4973 ft | 263 kts | 294° |
| 2026-05-07 14:06 | 34.17165 | 113.85800 | 4975 ft | 263 kts | 294° |
| 2026-05-07 14:06 | 34.17856 | 113.83745 | 4975 ft | 263 kts | 294° |
| 2026-05-07 14:06 | 34.18548 | 113.81699 | 4968 ft | 263 kts | 294° |
| 2026-05-07 14:06 | 34.19238 | 113.79666 | 4972 ft | 263 kts | 295° |
| 2026-05-07 14:07 | 34.19941 | 113.77602 | 4975 ft | 263 kts | 295° |
| 2026-05-07 14:07 | 34.20638 | 113.75556 | 4973 ft | 263 kts | 295° |
| 2026-05-07 14:07 | 34.21338 | 113.73515 | 4984 ft | 263 kts | 293° |
| 2026-05-07 14:07 | 34.22039 | 113.71455 | 4983 ft | 263 kts | 293° |
| 2026-05-07 14:08 | 34.22740 | 113.69381 | 4972 ft | 263 kts | 293° |
| 2026-05-07 14:08 | 34.23432 | 113.67336 | 4976 ft | 263 kts | 293° |
| 2026-05-07 14:08 | 34.24114 | 113.65327 | 4972 ft | 259 kts | 293° |
| 2026-05-07 14:08 | 34.24785 | 113.63355 | 4965 ft | 245 kts | 293° |
| 2026-05-07 14:09 | 34.25429 | 113.61466 | 4905 ft | 242 kts | 293° |
| 2026-05-07 14:09 | 34.26062 | 113.59606 | 4907 ft | 242 kts | 293° |
| 2026-05-07 14:09 | 34.26698 | 113.57742 | 4906 ft | 242 kts | 293° |
| 2026-05-07 14:09 | 34.27328 | 113.55890 | 4912 ft | 242 kts | 293° |
| 2026-05-07 14:10 | 34.27956 | 113.54042 | 4918 ft | 242 kts | 293° |
| 2026-05-07 14:10 | 34.28599 | 113.52156 | 4912 ft | 242 kts | 293° |
| 2026-05-07 14:10 | 34.29238 | 113.50280 | 4908 ft | 241 kts | 293° |
| 2026-05-07 14:10 | 34.29878 | 113.48398 | 4912 ft | 242 kts | 293° |
| 2026-05-07 14:11 | 34.30516 | 113.46522 | 4907 ft | 242 kts | 293° |
| 2026-05-07 14:11 | 34.31156 | 113.44644 | 4907 ft | 241 kts | 293° |
| 2026-05-07 14:11 | 34.31797 | 113.42770 | 4898 ft | 241 kts | 293° |
| 2026-05-07 14:11 | 34.32447 | 113.40888 | 4904 ft | 242 kts | 293° |
| 2026-05-07 14:12 | 34.33338 | 113.39165 | 4898 ft | 244 kts | 314° |
| 2026-05-07 14:12 | 34.34734 | 113.37989 | 4911 ft | 245 kts | 337° |
| 2026-05-07 14:12 | 34.36406 | 113.37551 | 4812 ft | 246 kts | 360° |
| 2026-05-07 14:12 | 34.38080 | 113.37921 | 4682 ft | 246 kts | 19° |
| 2026-05-07 14:13 | 34.39664 | 113.38691 | 4569 ft | 245 kts | 22° |
| 2026-05-07 14:13 | 34.41243 | 113.39508 | 4442 ft | 245 kts | 24° |
| 2026-05-07 14:13 | 34.42676 | 113.40576 | 4295 ft | 242 kts | 46° |
| 2026-05-07 14:13 | 34.43624 | 113.42233 | 4169 ft | 240 kts | 69° |
| 2026-05-07 14:14 | 34.43941 | 113.44186 | 4048 ft | 239 kts | 90° |
| 2026-05-07 14:14 | 34.43607 | 113.46159 | 3997 ft | 241 kts | 109° |
| 2026-05-07 14:14 | 34.42968 | 113.48043 | 3988 ft | 242 kts | 112° |
| 2026-05-07 14:14 | 34.42302 | 113.49919 | 3926 ft | 240 kts | 112° |
| 2026-05-07 14:15 | 34.41646 | 113.51782 | 3922 ft | 240 kts | 111° |
| 2026-05-07 14:15 | 34.41000 | 113.53650 | 3922 ft | 240 kts | 111° |
| 2026-05-07 14:15 | 34.40367 | 113.55497 | 3922 ft | 240 kts | 111° |
| 2026-05-07 14:15 | 34.39736 | 113.57351 | 3923 ft | 241 kts | 111° |
| 2026-05-07 14:16 | 34.39100 | 113.59225 | 3923 ft | 241 kts | 111° |
| 2026-05-07 14:16 | 34.38463 | 113.61103 | 3922 ft | 241 kts | 111° |
| 2026-05-07 14:16 | 34.37826 | 113.62977 | 3924 ft | 240 kts | 111° |
| 2026-05-07 14:16 | 34.37189 | 113.64847 | 3924 ft | 240 kts | 111° |
| 2026-05-07 14:17 | 34.36546 | 113.66733 | 3925 ft | 241 kts | 111° |
| 2026-05-07 14:17 | 34.35910 | 113.68622 | 3913 ft | 242 kts | 107° |
| 2026-05-07 14:17 | 34.35708 | 113.70590 | 3906 ft | 239 kts | 80° |
| 2026-05-07 14:17 | 34.36280 | 113.72456 | 3919 ft | 238 kts | 54° |
| 2026-05-07 14:18 | 34.37476 | 113.73821 | 3920 ft | 238 kts | 29° |
| 2026-05-07 14:18 | 34.38988 | 113.74638 | 3931 ft | 239 kts | 22° |
| 2026-05-07 14:18 | 34.40557 | 113.75286 | 3914 ft | 237 kts | 9° |
| 2026-05-07 14:18 | 34.42182 | 113.75141 | 3921 ft | 237 kts | 342° |
| 2026-05-07 14:19 | 34.43594 | 113.74104 | 3912 ft | 243 kts | 315° |
| 2026-05-07 14:19 | 34.44506 | 113.72373 | 3930 ft | 247 kts | 295° |
| 2026-05-07 14:19 | 34.45152 | 113.70437 | 3930 ft | 247 kts | 292° |
| 2026-05-07 14:19 | 34.45774 | 113.68491 | 3954 ft | 247 kts | 292° |
| 2026-05-07 14:20 | 34.46409 | 113.66547 | 3946 ft | 247 kts | 293° |
| 2026-05-07 14:20 | 34.47043 | 113.64633 | 3946 ft | 247 kts | 293° |
| 2026-05-07 14:20 | 34.47673 | 113.62748 | 3943 ft | 247 kts | 293° |
| 2026-05-07 14:20 | 34.48320 | 113.60821 | 3947 ft | 247 kts | 294° |
| 2026-05-07 14:21 | 34.48953 | 113.58955 | 3947 ft | 247 kts | 294° |
| 2026-05-07 14:21 | 34.49605 | 113.57043 | 3941 ft | 247 kts | 294° |
| 2026-05-07 14:21 | 34.50251 | 113.55153 | 3939 ft | 247 kts | 294° |
| 2026-05-07 14:21 | 34.50883 | 113.53290 | 3930 ft | 247 kts | 293° |
| 2026-05-07 14:22 | 34.51528 | 113.51372 | 3939 ft | 247 kts | 294° |
| 2026-05-07 14:22 | 34.52177 | 113.49443 | 3939 ft | 247 kts | 293° |
| 2026-05-07 14:22 | 34.52652 | 113.48206 | 3926 ft | 245 kts | 305° |
| 2026-05-07 14:22 | 34.54446 | 113.46655 | 3909 ft | 241 kts | 350° |
| 2026-05-07 14:23 | 34.56090 | 113.46753 | 3765 ft | 238 kts | 20° |
| 2026-05-07 14:23 | 34.57592 | 113.47501 | 3629 ft | 235 kts | 25° |
| 2026-05-07 14:23 | 34.59117 | 113.48308 | 3291 ft | 236 kts | 25° |
| 2026-05-07 14:23 | 34.60630 | 113.49100 | 3016 ft | 234 kts | 30° |
| 2026-05-07 14:24 | 34.61788 | 113.50396 | 2981 ft | 225 kts | 62° |
| 2026-05-07 14:24 | 34.62166 | 113.52122 | 2999 ft | 209 kts | 89° |
| 2026-05-07 14:24 | 34.62001 | 113.53855 | 3001 ft | 201 kts | 103° |
| 2026-05-07 14:24 | 34.61606 | 113.55391 | 3017 ft | 181 kts | 108° |
| 2026-05-07 14:25 | 34.61327 | 113.56321 | 3007 ft | 174 kts | 109° |
| 2026-05-07 14:25 | 34.60783 | 113.58022 | 2969 ft | 156 kts | 110° |
| 2026-05-07 14:25 | 34.60522 | 113.58817 | 2977 ft | 153 kts | 110° |
| 2026-05-07 14:25 | 34.59995 | 113.60394 | 3000 ft | 152 kts | 110° |
| 2026-05-07 14:26 | 34.59595 | 113.61579 | 3011 ft | 152 kts | 110° |
| 2026-05-07 14:26 | 34.59194 | 113.62760 | 3012 ft | 152 kts | 111° |
| 2026-05-07 14:26 | 34.58920 | 113.63565 | 3002 ft | 152 kts | 111° |
| 2026-05-07 14:26 | 34.58516 | 113.64748 | 3008 ft | 152 kts | 110° |
| 2026-05-07 14:27 | 34.58115 | 113.65925 | 3012 ft | 152 kts | 111° |
| 2026-05-07 14:27 | 34.57714 | 113.67098 | 3011 ft | 152 kts | 110° |
| 2026-05-07 14:27 | 34.57307 | 113.68292 | 2982 ft | 152 kts | 110° |
| 2026-05-07 14:27 | 34.56903 | 113.69478 | 2803 ft | 152 kts | 110° |
| 2026-05-07 14:28 | 34.56499 | 113.70664 | 2590 ft | 151 kts | 110° |
| 2026-05-07 14:28 | 34.56097 | 113.71843 | 2385 ft | 151 kts | 110° |
| 2026-05-07 14:28 | 34.55704 | 113.73004 | 2191 ft | 150 kts | 110° |
| 2026-05-07 14:28 | 34.55301 | 113.74189 | 1990 ft | 150 kts | 110° |
| 2026-05-07 14:29 | 34.54904 | 113.75358 | 1785 ft | 150 kts | 109° |
| 2026-05-07 14:29 | 34.54509 | 113.76523 | 1576 ft | 149 kts | 110° |
| 2026-05-07 14:29 | 34.54121 | 113.77666 | 1385 ft | 148 kts | 109° |
| 2026-05-07 14:29 | 34.53729 | 113.78822 | 1191 ft | 148 kts | 110° |
| 2026-05-07 14:30 | 34.53332 | 113.79970 | 1004 ft | 148 kts | 111° |
| 2026-05-07 14:30 | 34.52942 | 113.81123 | 760 ft | 147 kts | 109° |
| 2026-05-07 14:30 | 34.52565 | 113.82256 | 587 ft | 146 kts | 111° |
| 2026-05-07 14:30 | 34.52190 | 113.83376 | 512 ft | 123 kts | 112° |
| 2026-05-07 14:31 | 34.51952 | 113.84081 | 508 ft | 58 kts | 113° |
| 2026-05-07 14:31 | 34.51857 | 113.84357 | 509 ft | 26 kts | 112° |
| 2026-05-07 14:31 | 34.51793 | 113.84571 | 508 ft | 27 kts | 104° |
| 2026-05-07 14:31 | 34.51783 | 113.84754 | 510 ft | 20 kts | 87° |
| 2026-05-07 14:32 | 34.51826 | 113.84907 | 512 ft | 20 kts | 43° |
| 2026-05-07 14:32 | 34.51913 | 113.84965 | 513 ft | 14 kts | 24° |
| 2026-05-07 14:32 | 34.52011 | 113.85015 | 513 ft | 16 kts | 22° |
| 2026-05-07 14:32 | 34.52126 | 113.85073 | 513 ft | 20 kts | 22° |
| 2026-05-07 14:33 | 34.52178 | 113.85099 | 513 ft | 0 kts | 22° |
| 2026-05-07 14:33 | 34.52185 | 113.85102 | 513 ft | 2 kts | 22° |
| 2026-05-07 14:33 | 34.52206 | 113.85113 | 513 ft | 0 kts | 22° |
| 2026-05-07 14:33 | 34.52210 | 113.85114 | 513 ft | 2 kts | 22° |
| 2026-05-07 14:34 | 34.52226 | 113.85122 | 513 ft | 0 kts | 22° |
| 2026-05-07 14:34 | 34.52231 | 113.85125 | 513 ft | 2 kts | 22° |
| 2026-05-07 14:34 | 34.52257 | 113.85138 | 513 ft | 6 kts | 22° |
| 2026-05-07 14:34 | 34.52307 | 113.85162 | 513 ft | 9 kts | 22° |
| 2026-05-07 14:35 | 34.52379 | 113.85199 | 513 ft | 13 kts | 22° |
| 2026-05-07 14:35 | 34.52456 | 113.85184 | 513 ft | 13 kts | 311° |
| 2026-05-07 14:35 | 34.52472 | 113.85157 | 513 ft | 2 kts | 298° |
| 2026-05-07 14:35 | 34.52482 | 113.85131 | 513 ft | 5 kts | 295° |
| 2026-05-07 14:36 | 34.52495 | 113.85096 | 513 ft | 0 kts | 293° |
| 2026-05-07 14:36 | 34.52500 | 113.85082 | 513 ft | 3 kts | 292° |
| 2026-05-07 14:36 | 34.52501 | 113.85078 | 513 ft | 0 kts | 292° |
| 2026-05-07 14:36 | 34.52503 | 113.85073 | 513 ft | 2 kts | 292° |
| 2026-05-07 14:37 | 34.52506 | 113.85064 | 513 ft | 0 kts | 292° |
| 2026-05-07 14:37 | 34.52508 | 113.85058 | 513 ft | 0 kts | 292° |